Ryuhomaru — JD2639 — position and weather

sailwx.info

Track history (hours):
 
Tides and Currents Weather Stations Pressure Air Temp Water Temp Dewpoint Dewpoint Depression Visibility Wind Speed Wind Dir Waves Ship Positions

Ryuhomaru

Last reported at 2016-May-24 23:29 UTC. Time now 2016-May-24 23:35 UTC.
Position N 34°33' E 135°27'.

Length 42 m; draft 3.5 m.

Type: Tug. MMSI: 431000586.

Date/timePositionNaut miles runAvg speedWind from/ knotsBaromVisibWave heightAir tempDewpointWater temp
2016-May-24 23:29N 34°33' E 135°27'0 0.0
2016-May-24 09:33N 34°33' E 135°27'4 3.8
2016-May-24 08:33N 34°31' E 135°23'0 0.1
2016-May-24 07:30N 34°31' E 135°23'0 0.2
2016-May-24 06:32N 34°31' E 135°23'6 6.2
2016-May-24 05:33N 34°26' E 135°19'9 9.3
2016-May-24 04:32N 34°33' E 135°27'0 0.0
2016-May-24 03:33N 34°33' E 135°27'0 0.0
2016-May-24 02:27N 34°33' E 135°27'1 0.6
2016-May-24 01:32N 34°33' E 135°26'0 0.2
2016-May-24 00:33N 34°33' E 135°26'4 4.0
2016-May-23 23:33N 34°34' E 135°21'5 4.8
2016-May-23 22:33N 34°33' E 135°27'0 0.0
2016-May-23 06:33N 34°33' E 135°27'0 0.0
2016-May-23 04:24N 34°33' E 135°27'2 2.7
2016-May-23 03:33N 34°33' E 135°24'3 2.6
2016-May-23 02:34N 34°36' E 135°24'0 0.0
2016-May-23 01:34N 34°36' E 135°24'0 0.0
2016-May-23 00:33N 34°36' E 135°24'0 0.0
2016-May-22 23:34N 34°36' E 135°24'3 3.4
2016-May-22 22:34N 34°39' E 135°26'5 4.8
2016-May-22 21:30N 34°34' E 135°24'2 2.2
2016-May-22 20:28N 34°33' E 135°27'0 0.0
2016-May-22 06:33N 34°33' E 135°27'2 2.4
2016-May-22 05:33N 34°32' E 135°24'2 2.2
2016-May-22 04:33N 34°33' E 135°26'1 0.6
2016-May-22 03:33N 34°33' E 135°27'0 0.0
2016-May-22 02:33N 34°33' E 135°27'0 0.0
2016-May-22 01:33N 34°33' E 135°27'1 1.2
2016-May-22 00:26N 34°33' E 135°25'1 1.5
2016-May-21 23:32N 34°33' E 135°27'0 0.0
2016-May-21 02:33N 34°33' E 135°27'2 1.5
2016-May-21 01:21N 34°34' E 135°24'3 3.1
2016-May-21 00:29N 34°33' E 135°21'4 4.0
2016-May-20 23:32N 34°33' E 135°26'1 0.7
2016-May-20 22:26N 34°33' E 135°27'0 0.0
2016-May-20 07:32N 34°33' E 135°27'5 5.2
2016-May-20 06:33N 34°38' E 135°24'1 1.2
2016-May-20 05:33N 34°38' E 135°23'5 5.4
2016-May-20 04:33N 34°33' E 135°27'0 0.0
2016-May-20 03:33N 34°33' E 135°27'0 0.0
2016-May-20 02:33N 34°33' E 135°27'0 0.0
2016-May-20 01:21N 34°33' E 135°27'0 0.6
2016-May-20 00:33N 34°33' E 135°26'1 1.2
2016-May-19 23:33N 34°33' E 135°25'1 1.5
2016-May-19 22:33N 34°33' E 135°24'2 1.7
2016-May-19 21:33N 34°33' E 135°26'1 0.8
2016-May-19 20:28N 34°33' E 135°27'0 0.0
2016-May-18 09:03N 34°33' E 135°27'4 6.6
2016-May-18 08:26N 34°34' E 135°22'1213.9
2016-May-18 07:33N 34°36' E 135°07'1512.2
2016-May-18 06:22N 34°40' E 134°50'0 0.1
2016-May-18 01:12N 34°40' E 134°50'2 1.2
2016-May-17 23:23N 34°40' E 134°48'2 2.6
2016-May-17 22:33N 34°40' E 134°50'6 5.5
2016-May-17 21:30N 34°38' E 134°57'1414.6
2016-May-17 20:33N 34°35' E 135°13'1111.2
2016-May-17 19:34N 34°33' E 135°27'0 0.0
2016-May-17 08:14N 34°33' E 135°27'4 5.4
2016-May-17 07:33N 34°31' E 135°23'2 1.7
2016-May-17 06:33N 34°33' E 135°23'2 0.6
2016-May-17 03:24N 34°31' E 135°23'0 0.2
2016-May-17 00:20N 34°31' E 135°23'3 3.6
2016-May-16 23:27N 34°29' E 135°20'3 3.4
2016-May-16 22:33N 34°26' E 135°19'2 2.1
2016-May-16 21:33N 34°28' E 135°20'7 7.5
2016-May-16 20:33N 34°33' E 135°27'0 0.0
2016-May-16 07:28N 34°33' E 135°27'3 2.7
2016-May-16 06:32N 34°32' E 135°24'1 0.4
2016-May-16 04:24N 34°31' E 135°24'1 1.0
2016-May-16 03:28N 34°31' E 135°23'3 1.6
2016-May-16 01:29N 34°33' E 135°25'4 4.2
2016-May-16 00:33N 34°34' E 135°21'0 0.3
2016-May-15 23:33N 34°34' E 135°21'5 5.0
2016-May-15 22:30N 34°29' E 135°22'3 3.0
2016-May-15 21:33N 34°31' E 135°21'5 5.2
2016-May-15 20:32N 34°33' E 135°27'3 0.2
2016-May-15 04:33N 34°35' E 135°24'4 4.0
2016-May-15 03:33N 34°39' E 135°24'6 5.5
2016-May-15 02:33N 34°33' E 135°25'1 1.4
2016-May-15 01:33N 34°33' E 135°27'0 0.0
2016-May-15 00:33N 34°33' E 135°27'0 0.0
2016-May-14 23:31N 34°33' E 135°27'0 0.0
2016-May-14 22:33N 34°33' E 135°27'  
Track history (hours):
 
Tides and Currents Weather Stations Pressure Air Temp Water Temp Dewpoint Dewpoint Depression Visibility Wind Speed Wind Dir Waves Ship Positions

Ryuhomaru

Last reported at 2016-May-24 23:29 UTC. Time now 2016-May-24 23:35 UTC.
Position N 34°33' E 135°27'.

Length 42 m; draft 3.5 m.

Type: Tug. MMSI: 431000586.

Date/timePositionNaut miles runAvg speedWind from/ knotsBaromVisibWave heightAir tempDewpointWater temp
2016-May-24 23:29N 34°33' E 135°27'0 0.0
2016-May-24 09:33N 34°33' E 135°27'4 3.8
2016-May-24 08:33N 34°31' E 135°23'0 0.1
2016-May-24 07:30N 34°31' E 135°23'0 0.2
2016-May-24 06:32N 34°31' E 135°23'6 6.2
2016-May-24 05:33N 34°26' E 135°19'9 9.3
2016-May-24 04:32N 34°33' E 135°27'0 0.0
2016-May-24 03:33N 34°33' E 135°27'0 0.0
2016-May-24 02:27N 34°33' E 135°27'1 0.6
2016-May-24 01:32N 34°33' E 135°26'0 0.2
2016-May-24 00:33N 34°33' E 135°26'4 4.0
2016-May-23 23:33N 34°34' E 135°21'5 4.8
2016-May-23 22:33N 34°33' E 135°27'0 0.0
2016-May-23 06:33N 34°33' E 135°27'0 0.0
2016-May-23 04:24N 34°33' E 135°27'2 2.7
2016-May-23 03:33N 34°33' E 135°24'3 2.6
2016-May-23 02:34N 34°36' E 135°24'0 0.0
2016-May-23 01:34N 34°36' E 135°24'0 0.0
2016-May-23 00:33N 34°36' E 135°24'0 0.0
2016-May-22 23:34N 34°36' E 135°24'3 3.4
2016-May-22 22:34N 34°39' E 135°26'5 4.8
2016-May-22 21:30N 34°34' E 135°24'2 2.2
2016-May-22 20:28N 34°33' E 135°27'0 0.0
2016-May-22 06:33N 34°33' E 135°27'2 2.4
2016-May-22 05:33N 34°32' E 135°24'2 2.2
2016-May-22 04:33N 34°33' E 135°26'1 0.6
2016-May-22 03:33N 34°33' E 135°27'0 0.0
2016-May-22 02:33N 34°33' E 135°27'0 0.0
2016-May-22 01:33N 34°33' E 135°27'1 1.2
2016-May-22 00:26N 34°33' E 135°25'1 1.5
2016-May-21 23:32N 34°33' E 135°27'0 0.0
2016-May-21 02:33N 34°33' E 135°27'2 1.5
2016-May-21 01:21N 34°34' E 135°24'3 3.1
2016-May-21 00:29N 34°33' E 135°21'4 4.0
2016-May-20 23:32N 34°33' E 135°26'1 0.7
2016-May-20 22:26N 34°33' E 135°27'0 0.0
2016-May-20 07:32N 34°33' E 135°27'5 5.2
2016-May-20 06:33N 34°38' E 135°24'1 1.2
2016-May-20 05:33N 34°38' E 135°23'5 5.4
2016-May-20 04:33N 34°33' E 135°27'0 0.0
2016-May-20 03:33N 34°33' E 135°27'0 0.0
2016-May-20 02:33N 34°33' E 135°27'0 0.0
2016-May-20 01:21N 34°33' E 135°27'0 0.6
2016-May-20 00:33N 34°33' E 135°26'1 1.2
2016-May-19 23:33N 34°33' E 135°25'1 1.5
2016-May-19 22:33N 34°33' E 135°24'2 1.7
2016-May-19 21:33N 34°33' E 135°26'1 0.8
2016-May-19 20:28N 34°33' E 135°27'0 0.0
2016-May-18 09:03N 34°33' E 135°27'4 6.6
2016-May-18 08:26N 34°34' E 135°22'1213.9
2016-May-18 07:33N 34°36' E 135°07'1512.2
2016-May-18 06:22N 34°40' E 134°50'0 0.1
2016-May-18 01:12N 34°40' E 134°50'2 1.2
2016-May-17 23:23N 34°40' E 134°48'2 2.6
2016-May-17 22:33N 34°40' E 134°50'6 5.5
2016-May-17 21:30N 34°38' E 134°57'1414.6
2016-May-17 20:33N 34°35' E 135°13'1111.2
2016-May-17 19:34N 34°33' E 135°27'0 0.0
2016-May-17 08:14N 34°33' E 135°27'4 5.4
2016-May-17 07:33N 34°31' E 135°23'2 1.7
2016-May-17 06:33N 34°33' E 135°23'2 0.6
2016-May-17 03:24N 34°31' E 135°23'0 0.2
2016-May-17 00:20N 34°31' E 135°23'3 3.6
2016-May-16 23:27N 34°29' E 135°20'3 3.4
2016-May-16 22:33N 34°26' E 135°19'2 2.1
2016-May-16 21:33N 34°28' E 135°20'7 7.5
2016-May-16 20:33N 34°33' E 135°27'0 0.0
2016-May-16 07:28N 34°33' E 135°27'3 2.7
2016-May-16 06:32N 34°32' E 135°24'1 0.4
2016-May-16 04:24N 34°31' E 135°24'1 1.0
2016-May-16 03:28N 34°31' E 135°23'3 1.6
2016-May-16 01:29N 34°33' E 135°25'4 4.2
2016-May-16 00:33N 34°34' E 135°21'0 0.3
2016-May-15 23:33N 34°34' E 135°21'5 5.0
2016-May-15 22:30N 34°29' E 135°22'3 3.0
2016-May-15 21:33N 34°31' E 135°21'5 5.2
2016-May-15 20:32N 34°33' E 135°27'3 0.2
2016-May-15 04:33N 34°35' E 135°24'4 4.0
2016-May-15 03:33N 34°39' E 135°24'6 5.5
2016-May-15 02:33N 34°33' E 135°25'1 1.4
2016-May-15 01:33N 34°33' E 135°27'0 0.0
2016-May-15 00:33N 34°33' E 135°27'0 0.0
2016-May-14 23:31N 34°33' E 135°27'0 0.0
2016-May-14 22:33N 34°33' E 135°27'  

Dump ship's entire track history